METAR Data
IDs: Format: Raw Decoded Include TAF

Data at: 1455 UTC 18 Aug 2019

PARS 181356Z AUTO 01008KT 10SM CLR 11/04 A3041 RMK AO2 SLP302 T01110044 $
PARS 181256Z AUTO VRB06KT 10SM CLR 12/04 A3042 RMK AO2 SLP307 T01170044 $
PARS 181156Z AUTO 36005KT 10SM CLR 12/04 A3043 RMK AO2 SLP310 T01170044 10156 20100 58008 $
PARS 181056Z AUTO 35007KT 10SM CLR 13/05 A3045 RMK AO2 SLP315 T01280050 $
PARS 180956Z AUTO VRB06KT 10SM CLR 12/06 A3045 RMK AO2 SLP315 T01220056 $
PARS 180856Z AUTO VRB03KT 10SM CLR 11/08 A3046 RMK AO2 SLP318 T01060078 58001 $
PARS 180756Z AUTO 00000KT 10SM CLR 14/07 A3046 RMK AO2 SLP318 T01390072 401830067 $
PARS 180656Z AUTO VRB03KT 10SM CLR 13/08 A3046 RMK AO2 SLP319 T01330083 $
PARS 180456Z AUTO 03008KT 10SM CLR 17/08 A3046 RMK AO2 SLP320 T01720078 $
PARS 180356Z AUTO 02007KT 10SM CLR 18/08 A3046 RMK AO2 SLP320 T01780083 $
PARS 180256Z AUTO 03005KT 10SM CLR 18/08 A3047 RMK AO2 SLP322 T01830083 57009 $
PARS 180156Z AUTO 05005KT 10SM CLR 18/08 A3048 RMK AO2 SLP326 T01780083 $
PARS 180056Z AUTO 06007KT 030V090 10SM CLR 18/08 A3048 RMK AO2 SLP327 T01780083 $
PARS 172356Z AUTO 03007KT 10SM CLR 17/08 A3050 RMK AO2 SLP331 T01670078 10167 20106 58014 $
PARS 172256Z AUTO 04006KT 8SM CLR 16/07 A3052 RMK AO2 SLP338 T01560072 $
PARS 172156Z AUTO 03005KT 10SM CLR 15/07 A3052 RMK AO2 SLP341 T01500072 $
PARS 172056Z AUTO VRB05KT 10SM CLR 14/07 A3054 RMK AO2 SLP345 T01390067 50002 $
PARS 171956Z AUTO 06007KT 020V090 10SM CLR 13/06 A3054 RMK AO2 SLP346 T01280061 $
PARS 171856Z AUTO 04006KT 10SM CLR 12/07 A3054 RMK AO2 SLP346 T01170067 $
PARS 171756Z AUTO 02005KT 10SM CLR 11/07 A3053 RMK AO2 SLP342 T01060067 10117 20067 50004 $
PARS 171656Z AUTO VRB03KT 10SM CLR 09/07 A3053 RMK AO2 SLP343 T00940067 $
PARS 171556Z AUTO 25003KT 10SM CLR 07/06 A3052 RMK AO2 SLP340 T00670061 $
PARS 171456Z AUTO 00000KT 10SM CLR 09/06 A3052 RMK AO2 SLP338 T00890061 53005 $
PARS 171356Z AUTO VRB03KT 10SM CLR 09/08 A3051 RMK AO2 SLP337 T00890078 $
PARS 171256Z AUTO 00000KT 10SM CLR 11/07 A3050 RMK AO2 SLP334 T01060072 $
PARS 171156Z AUTO 34003KT 10SM FEW021 BKN120 12/09 A3050 RMK AO2 SLP333 70003 T01170089 10144 20117 53010 $
PARS 171109Z AUTO 01004KT 10SM SCT019 OVC100 13/11 A3049 RMK AO2 $
PARS 171056Z AUTO 00000KT 10SM BKN017 OVC100 13/11 A3049 RMK AO2 SLP329 T01280106 $
PARS 171037Z AUTO 02003KT 10SM BKN015 OVC110 13/11 A3049 RMK AO2 $
PARS 170956Z AUTO 34005KT 10SM OVC100 13/11 A3048 RMK AO2 SLP327 T01280111 $
PARS 170856Z AUTO VRB05KT 10SM BKN100 OVC110 13/12 A3047 RMK AO2 SLP323 T01330117 51009 $
PARS 170756Z AUTO 32003KT 10SM OVC100 14/12 A3046 RMK AO2 SLP320 T01390122 401560128 $
PARS 170656Z AUTO 00000KT 10SM FEW041 BKN065 OVC100 14/13 A3046 RMK AO2 SLP317 T01390133 $
PARS 170556Z AUTO 00000KT 10SM OVC060 14/13 A3045 RMK AO2 RAB0458E23 SLP314 P0001 60003 T01440133 10156 20139 50001 $
PARS 170542Z AUTO 29003KT 10SM SCT025 SCT032 OVC060 14/13 A3044 RMK AO2 RAB0458E23 P0001 $
PARS 170524Z AUTO 00000KT 10SM FEW009 BKN016 OVC025 14/13 A3044 RMK AO2 RAB0458E23 P0001 $
PARS 170517Z AUTO 00000KT 2 1/2SM -RA BR SCT009 BKN016 OVC023 14/13 A3044 RMK AO2 RAB0458 P0001 $
PARS 170510Z AUTO 00000KT 1 3/4SM -RA BR BKN009 BKN016 OVC021 14/13 A3044 RMK AO2 RAB0458 CIG 006V011 P0000 $
PARS 170456Z AUTO 36007KT 7SM BKN009 BKN014 OVC021 14/13 A3045 RMK AO2 RAB35E52 CIG 005V011 SLP315 P0000 T01440133 $
PARS 170449Z AUTO 02005KT 6SM -RA BR SCT009 BKN014 OVC021 15/14 A3044 RMK AO2 RAB35 P0000 $
PARS 170435Z AUTO 00000KT 5SM -RA BR BKN009 BKN015 OVC020 15/14 A3045 RMK AO2 RAB35 CIG 006V011 P0000 $
PARS 170356Z AUTO 27003KT 10SM OVC011 15/14 A3044 RMK AO2 RAE03 SLP313 P0000 T01500139 $
PARS 170329Z AUTO 26004KT 10SM OVC011 15/14 A3044 RMK AO2 RAE03 P0000 $
PARS 170256Z AUTO 26004KT 7SM -RA OVC007 15/14 A3044 RMK AO2 CIG 006V010 SLP313 P0001 60002 T01500139 50003 $